Time,TemperatureF,DewpointF,PressureIn,WindDirection,WindDirectionDegrees,WindSpeedMPH,WindSpeedGustMPH,Humidity,HourlyPrecipIn,Conditions,Clouds,dailyrainin,SoftwareType,DateUTC
2013-06-26 00:02:00,57.2,47.9,29.88,SW,225,0.0,0.0,71,0.00,,---,0.00,VWS V14.01,2013-06-26 07:02:00,
2013-06-26 00:07:00,57.2,47.9,29.88,WSW,248,0.0,0.0,71,0.00,,---,0.00,VWS V14.01,2013-06-26 07:07:00,
2013-06-26 00:12:00,57.2,48.3,29.88,WSW,248,0.0,0.0,72,0.00,,---,0.00,VWS V14.01,2013-06-26 07:12:00,
2013-06-26 00:17:00,57.2,48.3,29.88,WSW,248,0.0,0.0,72,0.00,,---,0.00,VWS V14.01,2013-06-26 07:17:00,
2013-06-26 00:22:00,57.2,48.3,29.88,WSW,248,0.0,0.0,72,0.00,,---,0.00,VWS V14.01,2013-06-26 07:22:00,
2013-06-26 00:27:00,57.2,48.6,29.88,WNW,292,0.0,0.0,73,0.00,,---,0.00,VWS V14.01,2013-06-26 07:27:00,
2013-06-26 00:32:00,57.2,48.6,29.88,WNW,292,0.0,0.0,73,0.00,,---,0.00,VWS V14.01,2013-06-26 07:32:00,
2013-06-26 00:37:00,57.2,48.6,29.88,WNW,292,0.0,0.0,73,0.00,,---,0.00,VWS V14.01,2013-06-26 07:37:00,
2013-06-26 00:42:00,57.6,49.0,29.88,South,180,0.0,0.0,73,0.00,,---,0.00,VWS V14.01,2013-06-26 07:42:00,
2013-06-26 00:47:00,57.6,49.3,29.88,South,180,0.0,0.0,74,0.00,,---,0.00,VWS V14.01,2013-06-26 07:47:00,
2013-06-26 00:52:00,57.6,49.0,29.88,SSW,202,0.0,0.0,73,0.00,,---,0.00,VWS V14.01,2013-06-26 07:52:00,
2013-06-26 00:57:00,57.6,49.0,29.88,SSW,202,0.0,0.0,73,0.00,,---,0.00,VWS V14.01,2013-06-26 07:57:00,
2013-06-26 01:02:00,57.4,48.8,29.88,SSW,202,0.0,0.0,73,0.00,,---,0.00,VWS V14.01,2013-06-26 08:02:00,
2013-06-26 01:07:00,57.4,48.8,29.88,SSW,202,0.0,0.0,73,0.00,,---,0.00,VWS V14.01,2013-06-26 08:07:00,
2013-06-26 01:12:00,57.2,49.0,29.88,SSW,202,0.0,0.0,74,0.00,,---,0.00,VWS V14.01,2013-06-26 08:12:00,
2013-06-26 01:17:00,57.4,48.8,29.88,WSW,248,0.0,0.0,73,0.00,,---,0.00,VWS V14.01,2013-06-26 08:17:00,
2013-06-26 01:22:00,57.6,49.3,29.91,WSW,248,0.0,0.0,74,0.00,,---,0.00,VWS V14.01,2013-06-26 08:22:00,
2013-06-26 01:27:00,57.6,49.3,29.91,WSW,248,0.0,0.0,74,0.00,,---,0.00,VWS V14.01,2013-06-26 08:27:00,
2013-06-26 01:32:00,57.6,49.3,29.91,SW,225,0.0,0.0,74,0.00,,---,0.00,VWS V14.01,2013-06-26 08:32:00,
2013-06-26 01:37:00,58.1,49.9,29.91,WSW,248,1.1,1.1,74,0.00,,---,0.00,VWS V14.01,2013-06-26 08:37:00,
2013-06-26 01:42:00,58.8,50.6,29.91,SW,225,0.0,0.0,74,0.00,,---,0.00,VWS V14.01,2013-06-26 08:42:00,
2013-06-26 01:47:00,59.4,50.7,29.88,SW,225,0.9,0.9,73,0.00,,---,0.00,VWS V14.01,2013-06-26 08:47:00,
2013-06-26 01:52:00,59.5,50.9,29.88,WSW,248,0.0,0.0,73,0.00,,---,0.00,VWS V14.01,2013-06-26 08:52:00,
2013-06-26 01:57:00,59.7,50.7,29.88,WSW,248,0.0,0.0,72,0.00,,---,0.00,VWS V14.01,2013-06-26 08:57:00,
2013-06-26 02:03:00,60.1,50.7,29.91,SSW,202,3.6,3.6,71,0.00,,---,0.00,VWS V14.01,2013-06-26 09:03:00,
2013-06-26 02:08:00,60.4,51.0,29.91,SW,225,3.8,3.8,71,0.00,,---,0.00,VWS V14.01,2013-06-26 09:08:00,
2013-06-26 02:13:00,60.6,50.8,29.91,South,180,3.4,3.4,70,0.00,,---,0.00,VWS V14.01,2013-06-26 09:13:00,
2013-06-26 02:18:00,60.6,50.8,29.94,WSW,248,5.4,5.4,70,0.00,,---,0.00,VWS V14.01,2013-06-26 09:18:00,
2013-06-26 02:23:00,60.6,50.8,29.94,SW,225,2.2,2.2,70,0.00,,---,0.00,VWS V14.01,2013-06-26 09:23:00,
2013-06-26 02:28:00,60.8,50.6,29.94,South,180,3.4,3.4,69,0.00,,---,0.00,VWS V14.01,2013-06-26 09:28:00,
2013-06-26 02:33:00,60.6,50.8,29.91,WSW,248,0.0,0.0,70,0.00,,---,0.00,VWS V14.01,2013-06-26 09:33:00,
2013-06-26 02:38:00,60.6,50.8,29.91,WSW,248,0.0,0.0,70,0.00,,---,0.00,VWS V14.01,2013-06-26 09:38:00,
2013-06-26 02:43:00,60.4,50.6,29.91,WSW,248,1.3,1.3,70,0.00,,---,0.00,VWS V14.01,2013-06-26 09:43:00,
2013-06-26 02:48:00,60.3,50.5,29.94,SW,225,2.5,2.5,70,0.00,,---,0.00,VWS V14.01,2013-06-26 09:48:00,
2013-06-26 02:53:00,60.3,50.5,29.94,WSW,248,2.7,2.7,70,0.00,,---,0.00,VWS V14.01,2013-06-26 09:53:00,
2013-06-26 02:58:00,60.3,50.5,29.94,SW,225,4.3,4.3,70,0.00,,---,0.00,VWS V14.01,2013-06-26 09:58:00,
2013-06-26 03:03:00,60.1,50.3,29.94,SSW,202,3.4,3.4,70,0.00,,---,0.00,VWS V14.01,2013-06-26 10:03:00,
2013-06-26 03:08:00,60.1,50.3,29.94,SSW,202,3.8,3.8,70,0.00,,---,0.00,VWS V14.01,2013-06-26 10:08:00,
2013-06-26 03:13:00,60.1,50.3,29.94,SW,225,2.0,2.0,70,0.00,,---,0.00,VWS V14.01,2013-06-26 10:13:00,
2013-06-26 03:18:00,59.9,50.1,29.94,SW,225,2.2,2.2,70,0.00,,---,0.00,VWS V14.01,2013-06-26 10:18:00,
2013-06-26 03:23:00,59.9,50.1,29.94,SW,225,0.0,0.0,70,0.00,,---,0.00,VWS V14.01,2013-06-26 10:23:00,
2013-06-26 03:28:00,59.7,49.9,29.94,SW,225,0.0,0.0,70,0.00,,---,0.00,VWS V14.01,2013-06-26 10:28:00,
2013-06-26 03:33:00,59.7,49.9,29.94,WSW,248,1.3,1.3,70,0.00,,---,0.00,VWS V14.01,2013-06-26 10:33:00,
2013-06-26 03:38:00,59.4,49.6,29.94,SSW,202,2.5,2.5,70,0.00,,---,0.00,VWS V14.01,2013-06-26 10:38:00,
2013-06-26 03:43:00,59.4,48.8,29.94,SW,225,4.0,4.0,68,0.00,,---,0.00,VWS V14.01,2013-06-26 10:43:00,
2013-06-26 03:48:00,59.4,48.8,29.94,SW,225,0.0,0.0,68,0.00,,---,0.00,VWS V14.01,2013-06-26 10:48:00,
2013-06-26 03:53:00,59.2,48.2,29.94,SSW,202,2.5,2.5,67,0.00,,---,0.00,VWS V14.01,2013-06-26 10:53:00,
2013-06-26 03:58:00,59.2,48.2,29.94,SW,225,0.0,0.0,67,0.00,,---,0.00,VWS V14.01,2013-06-26 10:58:00,
2013-06-26 04:03:00,59.0,48.1,29.94,WSW,248,0.0,0.0,67,0.00,,---,0.00,VWS V14.01,2013-06-26 11:03:00,
2013-06-26 04:08:00,59.0,48.1,29.94,SW,225,2.9,2.9,67,0.00,,---,0.00,VWS V14.01,2013-06-26 11:08:00,
2013-06-26 04:13:00,59.0,47.7,29.94,SSW,202,1.3,1.3,66,0.00,,---,0.00,VWS V14.01,2013-06-26 11:13:00,
2013-06-26 04:18:00,59.2,47.4,29.94,South,180,0.0,0.0,65,0.00,,---,0.00,VWS V14.01,2013-06-26 11:18:00,
2013-06-26 04:23:00,59.2,47.4,29.94,SSW,202,2.5,2.5,65,0.00,,---,0.00,VWS V14.01,2013-06-26 11:23:00,
2013-06-26 04:28:00,59.2,47.8,29.94,WSW,248,5.4,5.4,66,0.00,,---,0.00,VWS V14.01,2013-06-26 11:28:00,
2013-06-26 04:33:00,59.0,47.7,29.94,SSW,202,1.6,1.6,66,0.00,,---,0.00,VWS V14.01,2013-06-26 11:33:00,
2013-06-26 04:38:00,59.0,47.7,29.94,WSW,248,5.4,5.4,66,0.00,,---,0.00,VWS V14.01,2013-06-26 11:38:00,
2013-06-26 04:43:00,58.6,47.7,29.94,SSW,202,0.0,0.0,67,0.00,,---,0.00,VWS V14.01,2013-06-26 11:43:00,
2013-06-26 04:48:00,58.6,47.7,29.94,South,180,0.0,0.0,67,0.00,,---,0.00,VWS V14.01,2013-06-26 11:48:00,
2013-06-26 04:54:00,58.5,47.6,29.94,South,180,0.0,0.0,67,0.00,,---,0.00,VWS V14.01,2013-06-26 11:54:00,
2013-06-26 04:59:00,58.5,47.6,29.94,SSW,202,0.0,0.0,67,0.00,,---,0.00,VWS V14.01,2013-06-26 11:59:00,
2013-06-26 05:04:00,58.3,47.4,29.94,SSW,202,1.6,1.6,67,0.00,,---,0.00,VWS V14.01,2013-06-26 12:04:00,
2013-06-26 05:09:00,58.5,47.2,29.94,SW,225,0.0,0.0,66,0.00,,---,0.00,VWS V14.01,2013-06-26 12:09:00,
2013-06-26 05:14:00,58.5,47.6,29.94,WSW,248,0.0,0.0,67,0.00,,---,0.00,VWS V14.01,2013-06-26 12:14:00,
2013-06-26 05:19:00,58.6,47.3,29.94,SW,225,0.9,0.9,66,0.00,,---,0.00,VWS V14.01,2013-06-26 12:19:00,
2013-06-26 05:24:00,58.6,47.3,29.94,SW,225,0.0,0.0,66,0.00,,---,0.00,VWS V14.01,2013-06-26 12:24:00,
2013-06-26 05:29:00,58.8,47.1,29.94,SSW,202,3.4,3.4,65,0.00,,---,0.00,VWS V14.01,2013-06-26 12:29:00,
2013-06-26 05:34:00,59.0,47.3,29.97,WSW,248,0.0,0.0,65,0.00,,---,0.00,VWS V14.01,2013-06-26 12:34:00,
2013-06-26 05:39:00,59.2,47.0,29.97,WSW,248,0.0,0.0,64,0.00,,---,0.00,VWS V14.01,2013-06-26 12:39:00,
2013-06-26 05:44:00,59.2,47.4,29.97,SSW,202,0.0,0.0,65,0.00,,---,0.00,VWS V14.01,2013-06-26 12:44:00,
2013-06-26 05:49:00,59.2,47.0,29.97,SW,225,2.9,2.9,64,0.00,,---,0.00,VWS V14.01,2013-06-26 12:49:00,
2013-06-26 05:54:00,59.2,47.4,29.97,SSW,202,0.0,0.0,65,0.00,,---,0.00,VWS V14.01,2013-06-26 12:54:00,
2013-06-26 05:59:00,59.4,47.6,29.97,WSW,248,1.1,1.1,65,0.00,,---,0.00,VWS V14.01,2013-06-26 12:59:00,
2013-06-26 06:04:00,59.7,48.0,29.97,South,180,0.0,0.0,65,0.00,,---,0.00,VWS V14.01,2013-06-26 13:04:00,
2013-06-26 06:09:00,59.9,48.1,29.97,South,180,0.0,0.0,65,0.00,,---,0.00,VWS V14.01,2013-06-26 13:09:00,
2013-06-26 06:14:00,60.1,48.3,29.97,SW,225,0.0,0.0,65,0.00,,---,0.00,VWS V14.01,2013-06-26 13:14:00,
2013-06-26 06:19:00,60.4,48.6,29.97,SW,225,0.0,0.0,65,0.00,,---,0.00,VWS V14.01,2013-06-26 13:19:00,
2013-06-26 06:24:00,60.4,48.2,29.97,South,180,3.1,3.1,64,0.00,,---,0.00,VWS V14.01,2013-06-26 13:24:00,
2013-06-26 06:29:00,60.8,48.1,29.97,SW,225,0.9,0.9,63,0.00,,---,0.00,VWS V14.01,2013-06-26 13:29:00,
2013-06-26 06:34:00,61.2,48.5,29.97,SW,225,0.0,0.0,63,0.00,,---,0.00,VWS V14.01,2013-06-26 13:34:00,
2013-06-26 06:39:00,61.7,48.1,29.97,East,90,2.2,2.2,61,0.00,,---,0.00,VWS V14.01,2013-06-26 13:39:00,
2013-06-26 06:44:00,62.4,48.8,29.97,SE,135,0.0,0.0,61,0.00,,---,0.00,VWS V14.01,2013-06-26 13:44:00,
2013-06-26 06:49:00,63.0,48.4,29.97,NNE,22,0.0,0.0,59,0.00,,---,0.00,VWS V14.01,2013-06-26 13:49:00,
2013-06-26 06:54:00,62.8,48.3,29.97,South,180,3.4,3.4,59,0.00,,---,0.00,VWS V14.01,2013-06-26 13:54:00,
2013-06-26 06:59:00,62.4,47.0,29.97,SE,135,2.7,2.7,57,0.00,,---,0.00,VWS V14.01,2013-06-26 13:59:00,
2013-06-26 07:05:00,62.4,47.5,29.97,SW,225,0.0,0.0,58,0.00,,---,0.00,VWS V14.01,2013-06-26 14:05:00,
2013-06-26 07:10:00,62.4,47.0,29.97,South,180,2.2,2.2,57,0.00,,---,0.00,VWS V14.01,2013-06-26 14:10:00,
2013-06-26 07:15:00,62.4,47.5,29.97,South,180,0.0,0.0,58,0.00,,---,0.00,VWS V14.01,2013-06-26 14:15:00,
2013-06-26 07:20:00,62.6,47.2,29.97,SSW,202,0.0,0.0,57,0.00,,---,0.00,VWS V14.01,2013-06-26 14:20:00,
2013-06-26 07:25:00,62.8,47.3,29.97,SE,135,0.0,0.0,57,0.00,,---,0.00,VWS V14.01,2013-06-26 14:25:00,
2013-06-26 07:30:00,63.0,47.5,29.97,South,180,0.0,0.0,57,0.00,,---,0.00,VWS V14.01,2013-06-26 14:30:00,
2013-06-26 07:35:00,63.3,47.8,29.97,SSW,202,0.0,0.0,57,0.00,,---,0.00,VWS V14.01,2013-06-26 14:35:00,
2013-06-26 07:44:00,63.9,46.9,29.97,SW,225,0.0,0.0,54,0.00,,---,0.00,VWS V14.01,2013-06-26 14:44:00,
2013-06-26 07:49:00,65.3,48.2,29.97,SW,225,0.0,0.0,54,0.00,,---,0.00,VWS V14.01,2013-06-26 14:49:00,
2013-06-26 07:54:00,66.7,48.1,29.97,West,270,0.0,0.0,51,0.00,,---,0.00,VWS V14.01,2013-06-26 14:54:00,
2013-06-26 07:59:00,67.5,49.8,29.97,East,90,1.6,1.6,53,0.00,,---,0.00,VWS V14.01,2013-06-26 14:59:00,
2013-06-26 08:04:00,66.9,47.2,30.00,South,180,3.6,3.6,49,0.00,,---,0.00,VWS V14.01,2013-06-26 15:04:00,
2013-06-26 08:09:00,67.3,48.5,30.00,South,180,0.0,0.0,51,0.00,,---,0.00,VWS V14.01,2013-06-26 15:09:00,
2013-06-26 08:14:00,67.6,47.8,30.00,South,180,2.0,2.0,49,0.00,,---,0.00,VWS V14.01,2013-06-26 15:14:00,
2013-06-26 08:19:00,68.2,48.3,30.00,NW,315,0.0,0.0,49,0.00,,---,0.00,VWS V14.01,2013-06-26 15:19:00,
2013-06-26 08:24:00,68.5,47.0,30.00,South,180,3.8,3.8,46,0.00,,---,0.00,VWS V14.01,2013-06-26 15:24:00,
2013-06-26 08:29:00,68.7,46.5,30.00,SW,225,0.0,0.0,45,0.00,,---,0.00,VWS V14.01,2013-06-26 15:29:00,
2013-06-26 08:34:00,69.3,46.4,30.00,SSW,202,3.6,3.6,44,0.00,,---,0.00,VWS V14.01,2013-06-26 15:34:00,
2013-06-26 08:39:00,69.4,46.6,30.00,South,180,0.0,0.0,44,0.00,,---,0.00,VWS V14.01,2013-06-26 15:39:00,
2013-06-26 08:44:00,69.8,46.9,30.00,SW,225,0.0,0.0,44,0.00,,---,0.00,VWS V14.01,2013-06-26 15:44:00,
2013-06-26 08:49:00,70.3,46.8,30.00,ESE,112,1.1,1.1,43,0.00,,---,0.00,VWS V14.01,2013-06-26 15:49:00,
2013-06-26 08:54:00,69.8,46.3,30.00,SSW,202,0.0,0.0,43,0.00,,---,0.00,VWS V14.01,2013-06-26 15:54:00,
2013-06-26 08:59:00,69.4,46.6,30.00,West,270,0.9,0.9,44,0.00,,---,0.00,VWS V14.01,2013-06-26 15:59:00,
2013-06-26 09:04:00,68.5,45.2,30.00,WSW,248,2.0,2.0,43,0.00,,---,0.00,VWS V14.01,2013-06-26 16:04:00,
2013-06-26 09:09:00,68.2,45.5,30.00,WSW,248,0.0,0.0,44,0.00,,---,0.00,VWS V14.01,2013-06-26 16:09:00,
2013-06-26 09:14:00,68.5,45.8,30.00,West,270,2.2,2.2,44,0.00,,---,0.00,VWS V14.01,2013-06-26 16:14:00,
2013-06-26 09:19:00,68.7,46.0,30.00,SW,225,1.6,1.6,44,0.00,,---,0.00,VWS V14.01,2013-06-26 16:19:00,
2013-06-26 09:24:00,68.4,45.6,30.00,South,180,0.0,0.0,44,0.00,,---,0.00,VWS V14.01,2013-06-26 16:24:00,
2013-06-26 09:30:00,68.7,46.0,30.00,West,270,0.9,0.9,44,0.00,,---,0.00,VWS V14.01,2013-06-26 16:30:00,
2013-06-26 09:35:00,68.9,46.1,30.00,WSW,248,0.0,0.0,44,0.00,,---,0.00,VWS V14.01,2013-06-26 16:35:00,
2013-06-26 09:40:00,69.6,46.8,30.00,SW,225,1.6,1.6,44,0.00,,---,0.00,VWS V14.01,2013-06-26 16:40:00,
2013-06-26 09:45:00,69.6,46.8,30.00,SSW,202,0.0,0.0,44,0.00,,---,0.00,VWS V14.01,2013-06-26 16:45:00,
2013-06-26 09:50:00,70.0,45.9,30.00,SW,225,0.0,0.0,42,0.00,,---,0.00,VWS V14.01,2013-06-26 16:50:00,
2013-06-26 09:55:00,70.0,46.5,30.00,WSW,248,0.9,0.9,43,0.00,,---,0.00,VWS V14.01,2013-06-26 16:55:00,
2013-06-26 10:00:00,69.8,45.7,30.00,SW,225,0.0,0.0,42,0.00,,---,0.00,VWS V14.01,2013-06-26 17:00:00,
2013-06-26 10:05:00,70.0,44.6,30.00,SW,225,2.0,2.0,40,0.00,,---,0.00,VWS V14.01,2013-06-26 17:05:00,
2013-06-26 10:10:00,70.9,46.7,30.00,WSW,248,0.0,0.0,42,0.00,,---,0.00,VWS V14.01,2013-06-26 17:10:00,
2013-06-26 10:15:00,71.4,47.2,30.00,WSW,248,0.0,0.0,42,0.00,,---,0.00,VWS V14.01,2013-06-26 17:15:00,
2013-06-26 10:20:00,71.6,46.7,30.00,WSW,248,0.0,0.0,41,0.00,,---,0.00,VWS V14.01,2013-06-26 17:20:00,
2013-06-26 10:25:00,71.1,45.5,30.00,SW,225,2.2,2.2,40,0.00,,---,0.00,VWS V14.01,2013-06-26 17:25:00,
2013-06-26 10:30:00,71.2,46.4,30.00,West,270,0.0,0.0,41,0.00,,---,0.00,VWS V14.01,2013-06-26 17:30:00,
2013-06-26 10:35:00,71.1,46.2,30.00,WSW,248,2.9,2.9,41,0.00,,---,0.00,VWS V14.01,2013-06-26 17:35:00,
2013-06-26 10:40:00,70.3,46.2,30.00,SSW,202,2.7,2.7,42,0.00,,---,0.00,VWS V14.01,2013-06-26 17:40:00,
2013-06-26 10:45:00,70.3,46.2,30.00,SW,225,2.2,2.2,42,0.00,,---,0.00,VWS V14.01,2013-06-26 17:45:00,
2013-06-26 10:50:00,70.0,45.9,30.00,South,180,3.6,3.6,42,0.00,,---,0.00,VWS V14.01,2013-06-26 17:50:00,
2013-06-26 10:55:00,69.8,45.7,30.00,SSW,202,3.4,3.4,42,0.00,,---,0.00,VWS V14.01,2013-06-26 17:55:00,
2013-06-26 11:00:00,70.3,46.8,30.00,East,90,0.0,0.0,43,0.00,,---,0.00,VWS V14.01,2013-06-26 18:00:00,
2013-06-26 11:05:00,71.6,47.3,30.00,East,90,2.0,2.0,42,0.00,,---,0.00,VWS V14.01,2013-06-26 18:05:00,
2013-06-26 11:10:00,72.7,48.9,30.00,West,270,0.0,0.0,43,0.00,,---,0.00,VWS V14.01,2013-06-26 18:10:00,
2013-06-26 11:15:00,73.6,48.5,30.00,NW,315,0.0,0.0,41,0.00,,---,0.00,VWS V14.01,2013-06-26 18:15:00,
2013-06-26 11:20:00,73.6,48.5,30.00,SW,225,0.0,0.0,41,0.00,,---,0.00,VWS V14.01,2013-06-26 18:20:00,
2013-06-26 11:25:00,73.4,46.3,30.00,SSW,202,3.1,3.1,38,0.00,,---,0.00,VWS V14.01,2013-06-26 18:25:00,
2013-06-26 11:30:00,73.6,47.8,30.00,East,90,0.0,0.0,40,0.00,,---,0.00,VWS V14.01,2013-06-26 18:30:00,
2013-06-26 11:35:00,73.8,46.6,30.00,NW,315,1.3,1.3,38,0.00,,---,0.00,VWS V14.01,2013-06-26 18:35:00,
2013-06-26 11:40:00,74.8,47.6,30.00,NE,45,3.8,3.8,38,0.00,,---,0.00,VWS V14.01,2013-06-26 18:40:00,
2013-06-26 11:45:00,74.8,47.6,30.00,South,180,3.1,3.1,38,0.00,,---,0.00,VWS V14.01,2013-06-26 18:45:00,
2013-06-26 11:50:00,74.5,45.8,29.97,SSW,202,2.7,2.7,36,0.00,,---,0.00,VWS V14.01,2013-06-26 18:50:00,
2013-06-26 11:55:00,74.7,46.0,29.97,SE,135,5.6,5.6,36,0.00,,---,0.00,VWS V14.01,2013-06-26 18:55:00,
2013-06-26 12:00:00,74.7,47.4,29.97,East,90,0.0,0.0,38,0.00,,---,0.00,VWS V14.01,2013-06-26 19:00:00,
2013-06-26 12:05:00,75.6,48.2,30.00,SW,225,2.5,2.5,38,0.00,,---,0.00,VWS V14.01,2013-06-26 19:05:00,
2013-06-26 12:10:00,76.3,48.1,30.00,NW,315,1.6,1.6,37,0.00,,---,0.00,VWS V14.01,2013-06-26 19:10:00,
2013-06-26 12:15:00,74.8,46.1,30.00,WSW,248,2.7,2.7,36,0.00,,---,0.00,VWS V14.01,2013-06-26 19:15:00,
2013-06-26 12:20:00,73.4,44.8,30.00,WSW,248,0.0,0.0,36,0.00,,---,0.00,VWS V14.01,2013-06-26 19:20:00,
2013-06-26 12:25:00,74.1,46.9,30.00,SW,225,2.5,2.5,38,0.00,,---,0.00,VWS V14.01,2013-06-26 19:25:00,
2013-06-26 12:31:00,74.3,46.4,30.00,SSW,202,1.1,1.1,37,0.00,,---,0.00,VWS V14.01,2013-06-26 19:31:00,
2013-06-26 12:36:00,74.1,45.5,30.00,SW,225,3.8,3.8,36,0.00,,---,0.00,VWS V14.01,2013-06-26 19:36:00,
2013-06-26 12:41:00,74.3,47.1,30.00,SW,225,0.0,0.0,38,0.00,,---,0.00,VWS V14.01,2013-06-26 19:41:00,
2013-06-26 12:46:00,75.4,48.0,30.00,WSW,248,1.3,1.3,38,0.00,,---,0.00,VWS V14.01,2013-06-26 19:46:00,
2013-06-26 12:51:00,74.8,46.8,29.97,South,180,4.5,4.5,37,0.00,,---,0.00,VWS V14.01,2013-06-26 19:51:00,
2013-06-26 12:56:00,74.7,47.4,29.97,SW,225,2.9,2.9,38,0.00,,---,0.00,VWS V14.01,2013-06-26 19:56:00,
2013-06-26 13:01:00,74.8,46.8,29.97,WSW,248,2.7,2.7,37,0.00,,---,0.00,VWS V14.01,2013-06-26 20:01:00,
2013-06-26 13:06:00,76.1,48.0,30.00,West,270,0.0,0.0,37,0.00,,---,0.00,VWS V14.01,2013-06-26 20:06:00,
2013-06-26 13:11:00,76.1,48.0,30.00,West,270,0.0,0.0,37,0.00,,---,0.00,VWS V14.01,2013-06-26 20:11:00,
2013-06-26 13:16:00,75.4,46.6,30.00,WSW,248,2.0,2.0,36,0.00,,---,0.00,VWS V14.01,2013-06-26 20:16:00,
2013-06-26 13:21:00,74.5,47.2,30.00,WSW,248,1.1,1.1,38,0.00,,---,0.00,VWS V14.01,2013-06-26 20:21:00,
2013-06-26 13:26:00,75.4,47.3,30.00,West,270,0.0,0.0,37,0.00,,---,0.00,VWS V14.01,2013-06-26 20:26:00,
2013-06-26 13:31:00,76.8,50.0,30.00,WSW,248,0.0,0.0,39,0.00,,---,0.00,VWS V14.01,2013-06-26 20:31:00,
2013-06-26 13:36:00,77.0,47.3,30.00,West,270,0.0,0.0,35,0.00,,---,0.00,VWS V14.01,2013-06-26 20:36:00,
2013-06-26 13:41:00,77.0,47.3,30.00,NW,315,2.5,2.5,35,0.00,,---,0.00,VWS V14.01,2013-06-26 20:41:00,
2013-06-26 13:46:00,76.6,47.7,30.00,NNE,22,0.0,0.0,36,0.00,,---,0.00,VWS V14.01,2013-06-26 20:46:00,
2013-06-26 13:51:00,77.5,47.8,30.00,WNW,292,0.0,0.0,35,0.00,,---,0.00,VWS V14.01,2013-06-26 20:51:00,
2013-06-26 13:56:00,78.6,48.7,30.00,East,90,0.0,0.0,35,0.00,,---,0.00,VWS V14.01,2013-06-26 20:56:00,
2013-06-26 14:01:00,78.8,46.5,30.00,East,90,0.0,0.0,32,0.00,,---,0.00,VWS V14.01,2013-06-26 21:01:00,
2013-06-26 14:06:00,80.1,48.4,29.97,West,270,2.2,2.2,33,0.00,,---,0.00,VWS V14.01,2013-06-26 21:06:00,
2013-06-26 14:11:00,80.4,48.7,29.97,NNW,338,2.0,2.0,33,0.00,,---,0.00,VWS V14.01,2013-06-26 21:11:00,
2013-06-26 14:16:00,78.6,47.1,29.97,WSW,248,1.6,1.6,33,0.00,,---,0.00,VWS V14.01,2013-06-26 21:16:00,
2013-06-26 14:21:00,78.1,46.7,30.00,SW,225,0.9,0.9,33,0.00,,---,0.00,VWS V14.01,2013-06-26 21:21:00,
2013-06-26 14:26:00,78.3,46.8,30.00,NNE,22,2.5,2.5,33,0.00,,---,0.00,VWS V14.01,2013-06-26 21:26:00,
2013-06-26 14:31:00,78.8,47.3,30.00,NW,315,2.0,2.0,33,0.00,,---,0.00,VWS V14.01,2013-06-26 21:31:00,
2013-06-26 14:36:00,78.1,47.5,29.97,NW,315,0.0,0.0,34,0.00,,---,0.00,VWS V14.01,2013-06-26 21:36:00,
2013-06-26 14:41:00,76.6,46.2,29.97,ESE,112,2.7,2.7,34,0.00,,---,0.00,VWS V14.01,2013-06-26 21:41:00,
2013-06-26 14:46:00,77.0,46.5,29.97,SSW,202,3.8,3.8,34,0.00,,---,0.00,VWS V14.01,2013-06-26 21:46:00,
2013-06-26 14:51:00,78.4,47.8,29.97,WNW,292,0.0,0.0,34,0.00,,---,0.00,VWS V14.01,2013-06-26 21:51:00,
2013-06-26 14:56:00,79.5,47.9,29.97,SW,225,0.9,0.9,33,0.00,,---,0.00,VWS V14.01,2013-06-26 21:56:00,
2013-06-26 15:01:00,79.5,47.9,29.97,West,270,1.1,1.1,33,0.00,,---,0.00,VWS V14.01,2013-06-26 22:01:00,
2013-06-26 15:06:00,79.2,47.6,30.00,SW,225,1.3,1.3,33,0.00,,---,0.00,VWS V14.01,2013-06-26 22:06:00,
2013-06-26 15:11:00,77.5,46.2,30.00,SW,225,0.0,0.0,33,0.00,,---,0.00,VWS V14.01,2013-06-26 22:11:00,
2013-06-26 15:16:00,77.0,45.7,30.00,SW,225,2.7,2.7,33,0.00,,---,0.00,VWS V14.01,2013-06-26 22:16:00,
2013-06-26 15:21:00,76.6,45.4,30.00,West,270,2.7,2.7,33,0.00,,---,0.00,VWS V14.01,2013-06-26 22:21:00,
2013-06-26 15:26:00,75.6,45.2,30.00,SW,225,0.0,0.0,34,0.00,,---,0.00,VWS V14.01,2013-06-26 22:26:00,
2013-06-26 15:31:00,76.1,45.7,30.00,WSW,248,0.0,0.0,34,0.00,,---,0.00,VWS V14.01,2013-06-26 22:31:00,
2013-06-26 15:36:00,75.9,45.6,30.00,SW,225,1.3,1.3,34,0.00,,---,0.00,VWS V14.01,2013-06-26 22:36:00,
2013-06-26 15:41:00,76.1,45.7,30.00,WSW,248,0.9,0.9,34,0.00,,---,0.00,VWS V14.01,2013-06-26 22:41:00,
2013-06-26 15:46:00,76.5,46.0,30.00,SW,225,1.1,1.1,34,0.00,,---,0.00,VWS V14.01,2013-06-26 22:46:00,
2013-06-26 15:47:00,77.0,46.5,30.00,West,270,0.0,0.0,34,0.00,,---,0.00,VWS V14.01,2013-06-26 22:47:00,
2013-06-26 15:53:00,78.4,48.5,30.00,WNW,292,0.0,0.0,35,0.00,,---,0.00,VWS V14.01,2013-06-26 22:53:00,
2013-06-26 15:58:00,78.1,47.5,30.00,West,270,0.0,0.0,34,0.00,,---,0.00,VWS V14.01,2013-06-26 22:58:00,
2013-06-26 16:03:00,76.8,46.3,30.00,SW,225,0.0,0.0,34,0.00,,---,0.00,VWS V14.01,2013-06-26 23:03:00,
2013-06-26 16:08:00,77.0,46.5,30.00,NNW,338,2.2,2.2,34,0.00,,---,0.00,VWS V14.01,2013-06-26 23:08:00,
2013-06-26 16:13:00,77.2,46.7,30.00,WSW,248,1.6,1.6,34,0.00,,---,0.00,VWS V14.01,2013-06-26 23:13:00,
2013-06-26 16:18:00,77.5,46.2,30.00,WSW,248,1.1,1.1,33,0.00,,---,0.00,VWS V14.01,2013-06-26 23:18:00,
2013-06-26 16:23:00,78.3,46.8,30.00,WNW,292,0.0,0.0,33,0.00,,---,0.00,VWS V14.01,2013-06-26 23:23:00,
2013-06-26 16:28:00,78.3,46.8,30.00,West,270,0.0,0.0,33,0.00,,---,0.00,VWS V14.01,2013-06-26 23:28:00,
2013-06-26 16:33:00,77.5,46.2,30.00,NW,315,0.0,0.0,33,0.00,,---,0.00,VWS V14.01,2013-06-26 23:33:00,
2013-06-26 16:38:00,77.4,46.0,30.00,West,270,0.0,0.0,33,0.00,,---,0.00,VWS V14.01,2013-06-26 23:38:00,
2013-06-26 16:43:00,77.2,45.9,30.00,SW,225,0.0,0.0,33,0.00,,---,0.00,VWS V14.01,2013-06-26 23:43:00,
2013-06-26 16:48:00,76.6,46.2,30.00,ENE,68,2.2,2.2,34,0.00,,---,0.00,VWS V14.01,2013-06-26 23:48:00,
2013-06-26 16:53:00,76.3,45.9,30.00,NW,315,0.0,0.0,34,0.00,,---,0.00,VWS V14.01,2013-06-26 23:53:00,
2013-06-26 16:58:00,76.5,46.8,30.00,SE,135,0.0,0.0,35,0.00,,---,0.00,VWS V14.01,2013-06-26 23:58:00,
2013-06-26 17:03:00,76.5,46.0,30.00,WSW,248,0.0,0.0,34,0.00,,---,0.00,VWS V14.01,2013-06-27 00:03:00,
2013-06-26 17:08:00,75.4,45.1,30.00,West,270,2.5,2.5,34,0.00,,---,0.00,VWS V14.01,2013-06-27 00:08:00,
2013-06-26 17:13:00,75.7,45.4,30.00,WSW,248,3.8,3.8,34,0.00,,---,0.00,VWS V14.01,2013-06-27 00:13:00,
2013-06-26 17:18:00,75.7,45.4,29.97,SW,225,1.6,1.6,34,0.00,,---,0.00,VWS V14.01,2013-06-27 00:18:00,
2013-06-26 17:23:00,75.6,44.5,29.97,South,180,4.9,4.9,33,0.00,,---,0.00,VWS V14.01,2013-06-27 00:23:00,
2013-06-26 17:28:00,75.0,44.8,29.97,SW,225,3.1,3.1,34,0.00,,---,0.00,VWS V14.01,2013-06-27 00:28:00,
2013-06-26 17:33:00,75.2,44.9,30.00,SW,225,1.1,1.1,34,0.00,,---,0.00,VWS V14.01,2013-06-27 00:33:00,
2013-06-26 17:38:00,75.2,44.9,30.00,SW,225,1.1,1.1,34,0.00,,---,0.00,VWS V14.01,2013-06-27 00:38:00,
2013-06-26 17:43:00,74.7,44.5,30.00,WSW,248,0.0,0.0,34,0.00,,---,0.00,VWS V14.01,2013-06-27 00:43:00,
2013-06-26 17:48:00,74.7,45.2,30.00,WSW,248,0.0,0.0,35,0.00,,---,0.00,VWS V14.01,2013-06-27 00:48:00,
2013-06-26 17:53:00,74.5,45.1,30.00,West,270,2.9,2.9,35,0.00,,---,0.00,VWS V14.01,2013-06-27 00:53:00,
2013-06-26 17:58:00,74.3,44.9,30.00,WSW,248,0.0,0.0,35,0.00,,---,0.00,VWS V14.01,2013-06-27 00:58:00,
2013-06-26 18:03:00,73.9,45.3,30.00,SW,225,1.1,1.1,36,0.00,,---,0.00,VWS V14.01,2013-06-27 01:03:00,
2013-06-26 18:08:00,73.8,45.2,30.00,South,180,3.6,3.6,36,0.00,,---,0.00,VWS V14.01,2013-06-27 01:08:00,
2013-06-26 18:13:00,73.9,46.0,30.00,SW,225,2.5,2.5,37,0.00,,---,0.00,VWS V14.01,2013-06-27 01:13:00,
2013-06-26 18:18:00,73.6,45.0,30.00,SW,225,3.6,3.6,36,0.00,,---,0.00,VWS V14.01,2013-06-27 01:18:00,
2013-06-26 18:23:00,73.2,45.4,30.00,SW,225,1.1,1.1,37,0.00,,---,0.00,VWS V14.01,2013-06-27 01:23:00,
2013-06-26 18:28:00,73.0,46.0,30.00,WSW,248,2.2,2.2,38,0.00,,---,0.00,VWS V14.01,2013-06-27 01:28:00,
2013-06-26 18:33:00,73.0,46.0,30.00,SW,225,1.1,1.1,38,0.00,,---,0.00,VWS V14.01,2013-06-27 01:33:00,
2013-06-26 18:38:00,72.9,46.5,30.03,SSW,202,2.7,2.7,39,0.00,,---,0.00,VWS V14.01,2013-06-27 01:38:00,
2013-06-26 18:43:00,72.5,46.2,30.03,SSW,202,4.0,4.0,39,0.00,,---,0.00,VWS V14.01,2013-06-27 01:43:00,
2013-06-26 18:48:00,72.3,46.7,30.03,SW,225,3.4,3.4,40,0.00,,---,0.00,VWS V14.01,2013-06-27 01:48:00,
2013-06-26 18:53:00,72.3,47.3,30.03,WSW,248,0.0,0.0,41,0.00,,---,0.00,VWS V14.01,2013-06-27 01:53:00,
2013-06-26 18:58:00,72.1,47.2,30.03,WSW,248,2.9,2.9,41,0.00,,---,0.00,VWS V14.01,2013-06-27 01:58:00,
2013-06-26 19:03:00,72.1,47.8,30.03,SE,135,0.0,0.0,42,0.00,,---,0.00,VWS V14.01,2013-06-27 02:03:00,
2013-06-26 19:08:00,72.0,47.6,30.03,SW,225,0.9,0.9,42,0.00,,---,0.00,VWS V14.01,2013-06-27 02:08:00,
2013-06-26 19:13:00,71.8,47.5,30.03,South,180,2.9,2.9,42,0.00,,---,0.00,VWS V14.01,2013-06-27 02:13:00,
2013-06-26 19:18:00,71.6,47.3,30.03,SW,225,1.3,1.3,42,0.00,,---,0.00,VWS V14.01,2013-06-27 02:18:00,
2013-06-26 19:24:00,71.4,47.2,30.03,SW,225,0.0,0.0,42,0.00,,---,0.00,VWS V14.01,2013-06-27 02:24:00,
2013-06-26 19:29:00,71.1,47.5,30.03,WSW,248,0.9,0.9,43,0.00,,---,0.00,VWS V14.01,2013-06-27 02:29:00,
2013-06-26 19:34:00,70.7,47.7,30.03,South,180,4.7,4.7,44,0.00,,---,0.00,VWS V14.01,2013-06-27 02:34:00,
2013-06-26 19:39:00,70.3,48.0,30.03,NE,45,2.0,2.0,45,0.00,,---,0.00,VWS V14.01,2013-06-27 02:39:00,
2013-06-26 19:44:00,70.2,48.4,30.03,WSW,248,5.6,5.6,46,0.00,,---,0.00,VWS V14.01,2013-06-27 02:44:00,
2013-06-26 19:49:00,69.8,48.1,30.06,WSW,248,0.9,0.9,46,0.00,,---,0.00,VWS V14.01,2013-06-27 02:49:00,
2013-06-26 19:54:00,69.4,48.3,30.06,SW,225,2.5,2.5,47,0.00,,---,0.00,VWS V14.01,2013-06-27 02:54:00,
2013-06-26 19:59:00,69.1,48.6,30.06,SW,225,2.7,2.7,48,0.00,,---,0.00,VWS V14.01,2013-06-27 02:59:00,
2013-06-26 20:04:00,68.9,48.4,30.06,SW,225,1.6,1.6,48,0.00,,---,0.00,VWS V14.01,2013-06-27 03:04:00,
2013-06-26 20:09:00,68.5,48.1,30.06,SW,225,1.6,1.6,48,0.00,,---,0.00,VWS V14.01,2013-06-27 03:09:00,
2013-06-26 20:14:00,68.4,47.9,30.06,South,180,1.1,1.1,48,0.00,,---,0.00,VWS V14.01,2013-06-27 03:14:00,
2013-06-26 20:19:00,68.2,47.8,30.06,SSW,202,2.0,2.0,48,0.00,,---,0.00,VWS V14.01,2013-06-27 03:19:00,
2013-06-26 20:24:00,68.0,47.6,30.06,SW,225,0.0,0.0,48,0.00,,---,0.00,VWS V14.01,2013-06-27 03:24:00,
2013-06-26 20:29:00,67.8,46.9,30.06,NW,315,3.6,3.6,47,0.00,,---,0.00,VWS V14.01,2013-06-27 03:29:00,
2013-06-26 20:34:00,67.8,46.3,30.06,WSW,248,0.0,0.0,46,0.00,,---,0.00,VWS V14.01,2013-06-27 03:34:00,
2013-06-26 20:39:00,67.5,46.0,30.06,WSW,248,6.3,6.3,46,0.00,,---,0.00,VWS V14.01,2013-06-27 03:39:00,
2013-06-26 20:44:00,67.5,46.0,30.06,West,270,2.0,2.0,46,0.00,,---,0.00,VWS V14.01,2013-06-27 03:44:00,
2013-06-26 20:49:00,67.3,45.8,30.06,South,180,3.1,3.1,46,0.00,,---,0.00,VWS V14.01,2013-06-27 03:49:00,
2013-06-26 20:54:00,67.1,45.7,30.06,SW,225,1.6,1.6,46,0.00,,---,0.00,VWS V14.01,2013-06-27 03:54:00,
2013-06-26 20:59:00,66.9,46.0,30.06,WSW,248,2.7,2.7,47,0.00,,---,0.00,VWS V14.01,2013-06-27 03:59:00,
2013-06-26 21:01:00,66.9,46.0,30.06,SSW,202,3.4,3.4,47,0.00,,---,0.00,VWS V14.01,2013-06-27 04:01:00,
2013-06-26 21:02:00,66.9,46.0,30.06,SSW,202,3.4,3.4,47,0.00,,---,0.00,VWS V14.01,2013-06-27 04:02:00,
2013-06-26 21:04:00,66.7,45.9,30.06,SW,225,2.9,2.9,47,0.00,,---,0.00,VWS V14.01,2013-06-27 04:04:00,
2013-06-26 21:06:00,66.7,45.9,30.06,WSW,248,0.9,0.9,47,0.00,,---,0.00,VWS V14.01,2013-06-27 04:06:00,
2013-06-26 21:11:00,66.6,46.3,30.06,SSW,202,0.0,0.0,48,0.00,,---,0.00,VWS V14.01,2013-06-27 04:11:00,
2013-06-26 21:16:00,66.4,47.2,30.06,SW,225,3.4,3.4,50,0.00,,---,0.00,VWS V14.01,2013-06-27 04:16:00,
2013-06-26 21:22:00,66.4,46.7,30.06,SW,225,0.0,0.0,49,0.00,,---,0.00,VWS V14.01,2013-06-27 04:22:00,
2013-06-26 21:27:00,66.0,47.4,30.06,SW,225,0.0,0.0,51,0.00,,---,0.00,VWS V14.01,2013-06-27 04:27:00,
2013-06-26 21:32:00,65.8,47.7,30.06,NE,45,0.0,0.0,52,0.00,,---,0.00,VWS V14.01,2013-06-27 04:32:00,
2013-06-26 21:37:00,65.7,48.1,30.09,WSW,248,0.0,0.0,53,0.00,,---,0.00,VWS V14.01,2013-06-27 04:37:00,
2013-06-26 21:42:00,65.5,47.9,30.09,WSW,248,0.0,0.0,53,0.00,,---,0.00,VWS V14.01,2013-06-27 04:42:00,
2013-06-26 21:47:00,65.3,47.8,30.09,WSW,248,0.0,0.0,53,0.00,,---,0.00,VWS V14.01,2013-06-27 04:47:00,
2013-06-26 21:52:00,65.3,48.2,30.09,SW,225,0.0,0.0,54,0.00,,---,0.00,VWS V14.01,2013-06-27 04:52:00,
2013-06-26 21:57:00,65.1,48.6,30.09,SSW,202,0.0,0.0,55,0.00,,---,0.00,VWS V14.01,2013-06-27 04:57:00,
2013-06-26 22:02:00,65.1,48.6,30.09,SSW,202,0.0,0.0,55,0.00,,---,0.00,VWS V14.01,2013-06-27 05:02:00,
2013-06-26 22:07:00,65.1,48.6,30.09,SSW,202,2.5,2.5,55,0.00,,---,0.00,VWS V14.01,2013-06-27 05:07:00,
2013-06-26 22:12:00,64.9,48.4,30.09,SSW,202,0.0,0.0,55,0.00,,---,0.00,VWS V14.01,2013-06-27 05:12:00,
2013-06-26 22:17:00,64.9,48.4,30.09,SW,225,0.0,0.0,55,0.00,,---,0.00,VWS V14.01,2013-06-27 05:17:00,
2013-06-26 22:22:00,64.9,49.4,30.09,SSW,202,2.2,2.2,57,0.00,,---,0.00,VWS V14.01,2013-06-27 05:22:00,
2013-06-26 22:27:00,64.8,48.7,30.09,SW,225,2.9,2.9,56,0.00,,---,0.00,VWS V14.01,2013-06-27 05:27:00,
2013-06-26 22:32:00,64.8,49.2,30.09,WSW,248,3.4,3.4,57,0.00,,---,0.00,VWS V14.01,2013-06-27 05:32:00,
2013-06-26 22:37:00,64.8,49.2,30.12,SW,225,0.0,0.0,57,0.00,,---,0.00,VWS V14.01,2013-06-27 05:37:00,
2013-06-26 22:42:00,64.6,49.5,30.12,SSW,202,1.6,1.6,58,0.00,,---,0.00,VWS V14.01,2013-06-27 05:42:00,
2013-06-26 22:47:00,64.6,49.5,30.12,SW,225,1.3,1.3,58,0.00,,---,0.00,VWS V14.01,2013-06-27 05:47:00,
2013-06-26 22:52:00,64.4,49.8,30.12,SW,225,2.9,2.9,59,0.00,,---,0.00,VWS V14.01,2013-06-27 05:52:00,
2013-06-26 22:57:00,64.2,49.6,30.12,SW,225,0.0,0.0,59,0.00,,---,0.00,VWS V14.01,2013-06-27 05:57:00,
2013-06-26 23:02:00,64.2,50.1,30.12,SSW,202,0.0,0.0,60,0.00,,---,0.00,VWS V14.01,2013-06-27 06:02:00,
2013-06-26 23:07:00,64.2,50.1,30.12,SW,225,0.9,0.9,60,0.00,,---,0.00,VWS V14.01,2013-06-27 06:07:00,
2013-06-26 23:12:00,64.0,50.3,30.12,SW,225,2.7,2.7,61,0.00,,---,0.00,VWS V14.01,2013-06-27 06:12:00,
2013-06-26 23:17:00,63.9,50.6,30.12,SW,225,0.0,0.0,62,0.00,,---,0.00,VWS V14.01,2013-06-27 06:17:00,
2013-06-26 23:22:00,63.7,50.9,30.12,SE,135,1.3,1.3,63,0.00,,---,0.00,VWS V14.01,2013-06-27 06:22:00,
2013-06-26 23:27:00,63.5,51.1,30.12,SW,225,0.0,0.0,64,0.00,,---,0.00,VWS V14.01,2013-06-27 06:27:00,
2013-06-26 23:32:00,63.5,51.1,30.12,SW,225,0.0,0.0,64,0.00,,---,0.00,VWS V14.01,2013-06-27 06:32:00,
2013-06-26 23:37:00,63.1,51.2,30.12,SW,225,0.0,0.0,65,0.00,,---,0.00,VWS V14.01,2013-06-27 06:37:00,
2013-06-26 23:42:00,63.0,51.4,30.12,SSW,202,0.0,0.0,66,0.00,,---,0.00,VWS V14.01,2013-06-27 06:42:00,
2013-06-26 23:47:00,62.6,50.7,30.12,SW,225,0.0,0.0,65,0.00,,---,0.00,VWS V14.01,2013-06-27 06:47:00,
2013-06-26 23:53:00,62.2,50.8,30.12,SW,225,0.0,0.0,66,0.00,,---,0.00,VWS V14.01,2013-06-27 06:53:00,
2013-06-26 23:58:00,62.2,51.2,30.12,SW,225,0.0,0.0,67,0.00,,---,0.00,VWS V14.01,2013-06-27 06:58:00,